Teruhou Maru No.22 — JD3202 — position and weather

sailwx.info

Track history (hours):
 
Tides and Currents Weather Stations Pressure Air Temp Water Temp Dewpoint Dewpoint Depression Visibility Wind Speed Wind Dir Waves Ship Positions

Teruhou Maru No.22

Last reported at 2016-May-29 13:08 UTC. Time now 2016-Jun-01 05:31 UTC.
Position N 34°60' E 140°09'.

Length 76 m; draft 5 m.

Type: Cargo ship. MMSI: 431002552.

Date/timePositionNaut miles runAvg speedWind from/ knotsBaromVisibWave heightAir tempDewpointWater temp
2016-May-29 13:08N 34°60' E 140°09'64 9.1
2016-May-29 06:07N 35°57' E 140°43'3 4.7
2016-May-29 05:33N 35°56' E 140°40'0 0.0
2016-May-27 18:33N 35°56' E 140°40'0 0.0
2016-May-27 17:33N 35°56' E 140°40'0 0.0
2016-May-27 16:27N 35°56' E 140°40'0 0.0
2016-May-27 15:33N 35°56' E 140°40'0 0.0
2016-May-27 14:09N 35°56' E 140°40'0 0.0
2016-May-27 13:33N 35°56' E 140°40'0 0.0
2016-May-27 12:33N 35°56' E 140°40'0 0.0
2016-May-27 09:27N 35°56' E 140°40'0 0.0
2016-May-27 08:21N 35°56' E 140°40'0 0.0
2016-May-27 07:09N 35°56' E 140°40'0 0.0
2016-May-27 02:21N 35°56' E 140°40'0 0.0
2016-May-27 01:21N 35°56' E 140°40'0 0.0
2016-May-27 00:33N 35°56' E 140°40'0 0.0
2016-May-26 23:21N 35°56' E 140°40'0 0.0
2016-May-26 21:27N 35°56' E 140°40'0 0.0
2016-May-26 20:31N 35°56' E 140°40'58 9.6
2016-May-26 14:28N 35°02' E 140°12'2312.0
2016-May-26 12:32N 34°56' E 139°45'1212.4
2016-May-26 11:33N 35°08' E 139°45'1111.4
2016-May-26 10:33N 35°19' E 139°43'1110.9
2016-May-26 09:33N 35°29' E 139°50'1211.4
2016-May-26 08:33N 35°38' E 139°58'3 3.0
2016-May-26 07:33N 35°41' E 139°58'0 0.0
2016-May-26 06:23N 35°41' E 139°58'0 0.0
2016-May-26 05:20N 35°41' E 139°58'0 0.0
2016-May-26 04:32N 35°41' E 139°58'0 0.0
2016-May-26 03:26N 35°41' E 139°58'0 0.0
2016-May-26 02:29N 35°41' E 139°58'0 0.0
2016-May-26 01:30N 35°41' E 139°58'0 0.0
2016-May-26 00:32N 35°41' E 139°58'0 0.0
2016-May-25 23:32N 35°41' E 139°58'0 0.0
2016-May-25 22:29N 35°41' E 139°58'0 0.0
2016-May-25 21:33N 35°41' E 139°58'0 0.0
2016-May-25 20:29N 35°41' E 139°58'0 0.0
2016-May-25 19:30N 35°41' E 139°58'0 0.0
2016-May-25 17:23N 35°41' E 139°58'0 0.0
2016-May-25 16:29N 35°41' E 139°58'0 0.0
2016-May-25 15:26N 35°41' E 139°58'0 0.0
2016-May-25 14:32N 35°41' E 139°58'0 0.0
2016-May-25 13:29N 35°41' E 139°58'0 0.0
2016-May-25 12:29N 35°41' E 139°58'0 0.0
2016-May-25 11:26N 35°41' E 139°58'0 0.0
2016-May-25 10:32N 35°41' E 139°58'0 0.0
2016-May-25 09:32N 35°41' E 139°58'4 4.3
2016-May-25 08:33N 35°37' E 139°58'1312.7
2016-May-25 07:33N 35°26' E 139°49'25110.0
2016-May-24 06:27N 34°01' E 135°01'1112.1
2016-May-24 05:33N 34°11' E 134°60'1313.0
2016-May-24 04:33N 34°24' E 134°60'1211.6
2016-May-24 03:33N 34°36' E 135°03'15 0.5
2016-May-22 20:04N 34°41' E 134°45'710.6
2016-May-22 19:22N 34°37' E 134°53'8 9.4
2016-May-22 18:32N 34°36' E 135°03'9 8.8
2016-May-22 17:33N 34°28' E 135°03'1611.0
2016-May-22 16:05N 34°12' E 135°00'  
Track history (hours):
 
Tides and Currents Weather Stations Pressure Air Temp Water Temp Dewpoint Dewpoint Depression Visibility Wind Speed Wind Dir Waves Ship Positions

Teruhou Maru No.22

Last reported at 2016-May-29 13:08 UTC. Time now 2016-Jun-01 05:31 UTC.
Position N 34°60' E 140°09'.

Length 76 m; draft 5 m.

Type: Cargo ship. MMSI: 431002552.

Date/timePositionNaut miles runAvg speedWind from/ knotsBaromVisibWave heightAir tempDewpointWater temp
2016-May-29 13:08N 34°60' E 140°09'64 9.1
2016-May-29 06:07N 35°57' E 140°43'3 4.7
2016-May-29 05:33N 35°56' E 140°40'0 0.0
2016-May-27 18:33N 35°56' E 140°40'0 0.0
2016-May-27 17:33N 35°56' E 140°40'0 0.0
2016-May-27 16:27N 35°56' E 140°40'0 0.0
2016-May-27 15:33N 35°56' E 140°40'0 0.0
2016-May-27 14:09N 35°56' E 140°40'0 0.0
2016-May-27 13:33N 35°56' E 140°40'0 0.0
2016-May-27 12:33N 35°56' E 140°40'0 0.0
2016-May-27 09:27N 35°56' E 140°40'0 0.0
2016-May-27 08:21N 35°56' E 140°40'0 0.0
2016-May-27 07:09N 35°56' E 140°40'0 0.0
2016-May-27 02:21N 35°56' E 140°40'0 0.0
2016-May-27 01:21N 35°56' E 140°40'0 0.0
2016-May-27 00:33N 35°56' E 140°40'0 0.0
2016-May-26 23:21N 35°56' E 140°40'0 0.0
2016-May-26 21:27N 35°56' E 140°40'0 0.0
2016-May-26 20:31N 35°56' E 140°40'58 9.6
2016-May-26 14:28N 35°02' E 140°12'2312.0
2016-May-26 12:32N 34°56' E 139°45'1212.4
2016-May-26 11:33N 35°08' E 139°45'1111.4
2016-May-26 10:33N 35°19' E 139°43'1110.9
2016-May-26 09:33N 35°29' E 139°50'1211.4
2016-May-26 08:33N 35°38' E 139°58'3 3.0
2016-May-26 07:33N 35°41' E 139°58'0 0.0
2016-May-26 06:23N 35°41' E 139°58'0 0.0
2016-May-26 05:20N 35°41' E 139°58'0 0.0
2016-May-26 04:32N 35°41' E 139°58'0 0.0
2016-May-26 03:26N 35°41' E 139°58'0 0.0
2016-May-26 02:29N 35°41' E 139°58'0 0.0
2016-May-26 01:30N 35°41' E 139°58'0 0.0
2016-May-26 00:32N 35°41' E 139°58'0 0.0
2016-May-25 23:32N 35°41' E 139°58'0 0.0
2016-May-25 22:29N 35°41' E 139°58'0 0.0
2016-May-25 21:33N 35°41' E 139°58'0 0.0
2016-May-25 20:29N 35°41' E 139°58'0 0.0
2016-May-25 19:30N 35°41' E 139°58'0 0.0
2016-May-25 17:23N 35°41' E 139°58'0 0.0
2016-May-25 16:29N 35°41' E 139°58'0 0.0
2016-May-25 15:26N 35°41' E 139°58'0 0.0
2016-May-25 14:32N 35°41' E 139°58'0 0.0
2016-May-25 13:29N 35°41' E 139°58'0 0.0
2016-May-25 12:29N 35°41' E 139°58'0 0.0
2016-May-25 11:26N 35°41' E 139°58'0 0.0
2016-May-25 10:32N 35°41' E 139°58'0 0.0
2016-May-25 09:32N 35°41' E 139°58'4 4.3
2016-May-25 08:33N 35°37' E 139°58'1312.7
2016-May-25 07:33N 35°26' E 139°49'25110.0
2016-May-24 06:27N 34°01' E 135°01'1112.1
2016-May-24 05:33N 34°11' E 134°60'1313.0
2016-May-24 04:33N 34°24' E 134°60'1211.6
2016-May-24 03:33N 34°36' E 135°03'15 0.5
2016-May-22 20:04N 34°41' E 134°45'710.6
2016-May-22 19:22N 34°37' E 134°53'8 9.4
2016-May-22 18:32N 34°36' E 135°03'9 8.8
2016-May-22 17:33N 34°28' E 135°03'1611.0
2016-May-22 16:05N 34°12' E 135°00'  

Dump ship's entire track history